Terminal Aerodrome Forecast
Issued by NWS Quad Cities IA IL

Home | Current Version | Previous Version | Text Only | Print | Product List | Glossary On
Versions: 1 2 3 4 5 6 7 8 9 10 11 12 13 14 15 16 17 18 19 20 21
000
FTUS43 KDVN 260500 RRA
TAFMLI
TAF
KMLI 260545Z 2606/2706 VRB03KT P6SM BKN150
     FM261100 16005KT P6SM BKN025
     FM261300 17007KT P6SM OVC018
      TEMPO 2615/2617 1 1/2SM -SN BR SCT008 OVC012
     FM261700 22011KT P6SM BKN025
     FM270000 28005KT P6SM OVC020=

USA.gov is the U.S. government's official web portal to all federal, state and local government web resources and services.